createdAt,value
2023-05-08T00:02:12.654Z,16.48
2023-05-08T00:04:39.168Z,16.44
2023-05-08T00:07:05.822Z,16.44
2023-05-08T00:09:32.351Z,16.46
2023-05-08T00:11:58.984Z,16.48
2023-05-08T00:14:25.689Z,16.42
2023-05-08T00:16:52.442Z,16.44
2023-05-08T00:19:19.001Z,16.44
2023-05-08T00:21:45.519Z,16.44
2023-05-08T00:24:12.247Z,16.42
2023-05-08T00:26:38.864Z,16.41
2023-05-08T00:29:06.745Z,16.37
2023-05-08T00:31:34.004Z,16.35
2023-05-08T00:34:00.715Z,16.35
2023-05-08T00:36:27.567Z,16.33
2023-05-08T00:38:54.303Z,16.31
2023-05-08T00:41:21.483Z,16.31
2023-05-08T00:43:48.096Z,16.28
2023-05-08T00:46:14.697Z,16.24
2023-05-08T00:48:42.357Z,16.24
2023-05-08T00:51:10.130Z,16.26
2023-05-08T00:53:40.691Z,16.25
2023-05-08T00:56:11.909Z,16.24
2023-05-08T00:58:40.649Z,16.28
2023-05-08T01:01:07.373Z,16.25
2023-05-08T01:03:36.105Z,16.24
2023-05-08T01:06:03.837Z,16.25
2023-05-08T01:08:31.885Z,16.25
2023-05-08T01:11:24.981Z,16.28
2023-05-08T01:14:14.732Z,16.24
2023-05-08T01:16:50.154Z,16.23
2023-05-08T01:19:35.438Z,16.28
2023-05-08T01:22:10.842Z,16.22
2023-05-08T01:24:58.680Z,16.21
2023-05-08T01:27:39.191Z,16.24
2023-05-08T01:30:50.747Z,16.27
2023-05-08T01:33:33.445Z,16.19
2023-05-08T01:36:09.114Z,16.18
2023-05-08T01:39:12.575Z,16.24
2023-05-08T01:41:41.126Z,16.15
2023-05-08T01:44:17.409Z,16.16
2023-05-08T01:46:50.037Z,16.12
2023-05-08T01:49:27.880Z,16.10
2023-05-08T01:52:03.017Z,16.08
2023-05-08T01:54:36.450Z,16.06
2023-05-08T01:57:04.662Z,16.09
2023-05-08T01:59:33.601Z,16.03
2023-05-08T02:02:02.695Z,16.05
2023-05-08T02:04:30.540Z,16.06
2023-05-08T02:06:58.981Z,16.05
2023-05-08T02:09:28.393Z,16.06
2023-05-08T02:11:55.550Z,16.06
2023-05-08T02:14:22.758Z,16.09
2023-05-08T02:16:51.865Z,16.08
2023-05-08T02:19:20.403Z,16.08
2023-05-08T02:21:48.201Z,16.07
2023-05-08T02:24:15.696Z,16.06
2023-05-08T02:26:44.842Z,16.05
2023-05-08T02:29:11.476Z,16.03
2023-05-08T02:31:41.747Z,16.03
2023-05-08T02:34:09.691Z,15.97
2023-05-08T02:36:38.225Z,15.98
2023-05-08T02:39:05.985Z,15.96
2023-05-08T02:41:33.765Z,15.98
2023-05-08T02:44:00.574Z,15.95
2023-05-08T02:46:47.996Z,15.99
2023-05-08T02:49:39.461Z,15.96
2023-05-08T02:52:13.786Z,15.99
2023-05-08T02:55:01.291Z,16.02
2023-05-08T02:57:48.130Z,15.93
2023-05-08T03:00:22.336Z,15.97
2023-05-08T03:03:00.005Z,15.98
2023-05-08T03:05:32.610Z,15.96
2023-05-08T03:08:15.343Z,16.00
2023-05-08T03:10:44.403Z,15.93
2023-05-08T03:13:12.471Z,15.93
2023-05-08T03:15:45.416Z,15.92
2023-05-08T03:18:16.697Z,15.91
2023-05-08T03:20:49.610Z,15.91
2023-05-08T03:23:19.987Z,15.87
2023-05-08T03:25:46.702Z,15.88
2023-05-08T03:28:14.992Z,15.86
2023-05-08T03:30:42.675Z,15.84
2023-05-08T03:33:12.960Z,15.82
2023-05-08T03:35:39.761Z,15.79
2023-05-08T03:38:08.497Z,15.79
2023-05-08T03:40:38.501Z,15.79
2023-05-08T03:43:08.857Z,15.71
2023-05-08T03:45:37.216Z,15.67
2023-05-08T03:48:06.918Z,15.67
2023-05-08T03:50:36.245Z,15.57
2023-05-08T03:53:04.444Z,15.53
2023-05-08T03:55:32.188Z,15.48
2023-05-08T03:58:17.657Z,15.51
2023-05-08T04:00:58.673Z,15.50
2023-05-08T04:03:48.019Z,15.51
2023-05-08T04:06:22.730Z,15.50
2023-05-08T04:09:00.426Z,15.54
2023-05-08T04:11:35.596Z,15.56
2023-05-08T04:14:07.599Z,15.59
2023-05-08T04:16:45.815Z,15.55
2023-05-08T04:19:29.172Z,15.66
2023-05-08T04:22:02.147Z,15.57
2023-05-08T04:24:31.870Z,15.59
2023-05-08T04:26:59.401Z,15.56
2023-05-08T04:29:26.171Z,15.56
2023-05-08T04:31:53.458Z,15.58
2023-05-08T04:34:20.691Z,15.66
2023-05-08T04:36:48.577Z,15.68
2023-05-08T04:39:15.130Z,15.65
2023-05-08T04:41:42.299Z,15.58
2023-05-08T04:44:09.013Z,15.48
2023-05-08T04:46:35.678Z,15.41
2023-05-08T04:49:02.614Z,15.40
2023-05-08T04:51:31.827Z,15.42
2023-05-08T04:53:58.421Z,15.44
2023-05-08T04:56:25.187Z,15.41
2023-05-08T04:58:51.686Z,15.39
2023-05-08T05:01:18.701Z,15.38
2023-05-08T05:03:45.300Z,15.36
2023-05-08T05:06:12.484Z,15.43
2023-05-08T05:08:38.955Z,15.40
2023-05-08T05:11:05.722Z,15.50
2023-05-08T05:13:32.545Z,15.49
2023-05-08T05:15:59.969Z,15.45
2023-05-08T05:18:26.604Z,15.37
2023-05-08T05:20:54.143Z,15.34
2023-05-08T05:23:21.293Z,15.25
2023-05-08T05:25:47.859Z,15.23
2023-05-08T05:28:14.398Z,15.18
2023-05-08T05:30:41.017Z,15.12
2023-05-08T05:33:07.781Z,15.13
2023-05-08T05:35:34.539Z,15.16
2023-05-08T05:38:01.519Z,15.21
2023-05-08T05:40:28.811Z,15.22
2023-05-08T05:42:55.350Z,15.21
2023-05-08T05:45:21.955Z,15.26
2023-05-08T05:47:50.112Z,15.28
2023-05-08T05:50:18.721Z,15.23
2023-05-08T05:52:46.329Z,15.32
2023-05-08T05:55:13.519Z,15.32
2023-05-08T05:57:40.752Z,15.31
2023-05-08T06:00:08.827Z,15.36
2023-05-08T06:02:41.817Z,15.42
2023-05-08T06:05:11.183Z,15.36
2023-05-08T06:07:38.293Z,15.34
2023-05-08T06:10:05.283Z,15.33
2023-05-08T06:12:31.901Z,15.34
2023-05-08T06:14:59.733Z,15.41
2023-05-08T06:17:26.880Z,15.48
2023-05-08T06:19:55.928Z,15.42
2023-05-08T06:22:23.371Z,15.44
2023-05-08T06:24:53.467Z,15.43
2023-05-08T06:27:21.071Z,15.47
2023-05-08T06:29:50.675Z,15.58
2023-05-08T06:32:18.113Z,15.62
2023-05-08T06:34:44.941Z,15.62
2023-05-08T06:37:11.586Z,15.65
2023-05-08T06:39:38.196Z,15.65
2023-05-08T06:42:08.686Z,15.69
2023-05-08T06:44:38.485Z,15.67
2023-05-08T06:47:04.972Z,15.66
2023-05-08T06:49:31.459Z,15.62
2023-05-08T06:51:58.341Z,15.65
2023-05-08T06:54:25.010Z,15.66
2023-05-08T06:56:53.585Z,15.65
2023-05-08T06:59:21.334Z,15.67
2023-05-08T07:01:47.960Z,15.58
2023-05-08T07:04:14.670Z,15.61
2023-05-08T07:06:41.277Z,15.60
2023-05-08T07:09:07.817Z,15.61
2023-05-08T07:11:34.413Z,15.61
2023-05-08T07:14:01.000Z,15.61
2023-05-08T07:16:27.593Z,15.60
2023-05-08T07:18:54.135Z,15.58
2023-05-08T07:21:21.315Z,15.64
2023-05-08T07:23:50.305Z,15.58
2023-05-08T07:26:16.986Z,15.54
2023-05-08T07:28:43.697Z,15.46
2023-05-08T07:31:10.306Z,15.46
2023-05-08T07:33:37.506Z,15.49
2023-05-08T07:36:04.213Z,15.56
2023-05-08T07:38:30.751Z,15.62
2023-05-08T07:40:57.901Z,15.69
2023-05-08T07:43:24.429Z,15.71
2023-05-08T07:45:51.169Z,15.73
2023-05-08T07:48:17.919Z,15.77
2023-05-08T07:50:44.773Z,15.79
2023-05-08T07:53:11.310Z,15.84
2023-05-08T07:55:37.798Z,15.84
2023-05-08T07:58:04.351Z,15.88
2023-05-08T08:00:31.438Z,15.94
2023-05-08T08:02:58.110Z,15.94
2023-05-08T08:05:24.838Z,15.95
2023-05-08T08:07:51.388Z,15.94
2023-05-08T08:10:17.901Z,16.01
2023-05-08T08:12:44.552Z,16.02
2023-05-08T08:15:11.455Z,16.02
2023-05-08T08:17:38.215Z,16.04
2023-05-08T08:20:05.436Z,16.10
2023-05-08T08:22:31.967Z,16.07
2023-05-08T08:24:58.519Z,16.07
2023-05-08T08:27:25.062Z,16.12
2023-05-08T08:29:56.320Z,16.20
2023-05-08T08:32:31.278Z,16.12
2023-05-08T08:34:57.818Z,16.22
2023-05-08T08:37:26.199Z,16.17
2023-05-08T08:39:53.205Z,16.18
2023-05-08T08:42:19.757Z,16.22
2023-05-08T08:44:46.532Z,16.28
2023-05-08T08:47:16.363Z,16.37
2023-05-08T08:49:49.719Z,16.37
2023-05-08T08:52:43.401Z,16.47
2023-05-08T08:55:15.083Z,16.44
2023-05-08T08:57:52.643Z,16.51
2023-05-08T09:00:21.185Z,16.60
2023-05-08T09:02:48.795Z,16.66
2023-05-08T09:05:15.790Z,16.60
2023-05-08T09:07:43.791Z,16.66
2023-05-08T09:10:15.826Z,16.68
2023-05-08T09:12:42.583Z,16.75
2023-05-08T09:15:09.415Z,16.79
2023-05-08T09:17:36.146Z,16.73
2023-05-08T09:20:03.644Z,16.69
2023-05-08T09:22:30.390Z,16.68
2023-05-08T09:25:01.069Z,16.68
2023-05-08T09:27:29.078Z,16.70
2023-05-08T09:30:01.841Z,16.72
2023-05-08T09:32:30.050Z,16.71
2023-05-08T09:34:56.861Z,16.76
2023-05-08T09:37:24.766Z,16.83
2023-05-08T09:39:51.359Z,16.89
2023-05-08T09:42:17.949Z,16.87
2023-05-08T09:44:45.955Z,16.83
2023-05-08T09:47:22.982Z,16.81
2023-05-08T09:50:00.647Z,16.82
2023-05-08T09:52:28.753Z,16.86
2023-05-08T09:54:59.583Z,16.88
2023-05-08T09:57:30.373Z,16.90
2023-05-08T10:00:12.275Z,16.94
2023-05-08T10:02:53.644Z,16.97
2023-05-08T10:05:34.634Z,17.00
2023-05-08T10:08:21.803Z,17.01
2023-05-08T10:10:48.768Z,17.01
2023-05-08T10:13:15.599Z,16.95
2023-05-08T10:15:43.581Z,16.93
2023-05-08T10:18:12.104Z,16.91
2023-05-08T10:20:46.607Z,16.93
2023-05-08T10:23:19.047Z,16.89
2023-05-08T10:25:47.052Z,16.87
2023-05-08T10:28:18.353Z,16.87
2023-05-08T10:30:48.501Z,16.88
2023-05-08T10:33:19.971Z,16.92
2023-05-08T10:35:46.741Z,16.86
2023-05-08T10:38:15.317Z,16.87
2023-05-08T10:40:41.941Z,16.92
2023-05-08T10:43:09.891Z,17.00
2023-05-08T10:45:37.611Z,16.96
2023-05-08T10:48:15.951Z,17.02
2023-05-08T10:51:08.342Z,17.12
2023-05-08T10:53:40.913Z,17.11
2023-05-08T10:56:07.626Z,17.15
2023-05-08T10:58:37.110Z,17.21
2023-05-08T11:01:09.440Z,17.21
2023-05-08T11:03:44.499Z,17.23
2023-05-08T11:06:11.655Z,17.27
2023-05-08T11:08:47.717Z,17.30
2023-05-08T11:11:21.875Z,17.32
2023-05-08T11:13:54.697Z,17.39
2023-05-08T11:16:56.390Z,17.53
2023-05-08T11:19:26.949Z,17.51
2023-05-08T11:22:15.032Z,17.50
2023-05-08T11:24:55.755Z,17.54
2023-05-08T11:27:37.938Z,17.59
2023-05-08T11:30:32.104Z,17.64
2023-05-08T11:32:59.674Z,17.64
2023-05-08T11:35:51.329Z,17.65
2023-05-08T11:38:38.119Z,17.65
2023-05-08T11:41:04.654Z,17.69
2023-05-08T11:43:34.237Z,17.73
2023-05-08T11:46:07.127Z,17.76
2023-05-08T11:48:34.726Z,17.83
2023-05-08T11:51:02.508Z,17.80
2023-05-08T11:53:32.780Z,17.84
2023-05-08T11:56:00.594Z,17.90
2023-05-08T11:58:27.161Z,17.97
2023-05-08T12:00:54.518Z,18.03
2023-05-08T12:03:22.942Z,17.96
2023-05-08T12:05:51.093Z,18.07
2023-05-08T12:08:18.391Z,18.15
2023-05-08T12:10:53.470Z,18.20
2023-05-08T12:13:24.136Z,18.29
2023-05-08T12:15:53.477Z,18.38
2023-05-08T12:18:21.337Z,18.50
2023-05-08T12:20:59.096Z,18.71
2023-05-08T12:23:26.427Z,18.61
2023-05-08T12:25:55.294Z,18.64
2023-05-08T12:28:22.790Z,18.70
2023-05-08T12:30:50.080Z,18.77
2023-05-08T12:33:18.472Z,18.76
2023-05-08T12:35:45.209Z,18.84
2023-05-08T12:38:14.201Z,18.96
2023-05-08T12:40:43.250Z,19.04
2023-05-08T12:43:10.270Z,19.12
2023-05-08T12:45:39.382Z,19.24
2023-05-08T12:48:18.490Z,19.31
2023-05-08T12:50:46.289Z,19.26
2023-05-08T12:53:15.306Z,19.34
2023-05-08T12:55:54.788Z,19.39
2023-05-08T12:58:25.448Z,19.55
2023-05-08T13:00:53.161Z,19.52
2023-05-08T13:03:26.390Z,19.55
2023-05-08T13:05:54.745Z,19.58
2023-05-08T13:08:33.395Z,19.74
2023-05-08T13:11:00.800Z,19.80
2023-05-08T13:13:29.952Z,19.72
2023-05-08T13:15:56.756Z,19.74
2023-05-08T13:18:27.666Z,19.69
2023-05-08T13:20:55.351Z,19.65
2023-05-08T13:23:22.552Z,19.63
2023-05-08T13:25:49.384Z,19.71
2023-05-08T13:28:16.119Z,19.79
2023-05-08T13:30:42.949Z,19.89
2023-05-08T13:33:09.677Z,19.91
2023-05-08T13:35:36.485Z,19.78
2023-05-08T13:38:03.161Z,19.80
2023-05-08T13:40:30.167Z,19.88
2023-05-08T13:42:56.782Z,19.98
2023-05-08T13:45:23.359Z,20.01
2023-05-08T13:47:50.975Z,19.99
2023-05-08T13:50:19.805Z,19.97
2023-05-08T13:52:46.360Z,19.95
2023-05-08T13:55:13.996Z,19.96
2023-05-08T13:57:41.203Z,19.92
2023-05-08T14:00:09.345Z,19.87
2023-05-08T14:02:37.392Z,19.85
2023-05-08T14:05:05.000Z,19.91
2023-05-08T14:07:31.484Z,20.04
2023-05-08T14:09:58.156Z,20.16
2023-05-08T14:12:24.646Z,20.27
2023-05-08T14:14:51.200Z,20.32
2023-05-08T14:17:17.895Z,20.41
2023-05-08T14:19:45.935Z,20.52
2023-05-08T14:22:12.541Z,20.59
2023-05-08T14:24:39.524Z,20.74
2023-05-08T14:27:06.295Z,20.80
2023-05-08T14:29:34.196Z,20.88
2023-05-08T14:32:01.155Z,20.84
2023-05-08T14:34:27.917Z,20.77
2023-05-08T14:36:54.539Z,20.83
2023-05-08T14:39:21.121Z,20.75
2023-05-08T14:42:05.183Z,20.68
2023-05-08T14:44:34.352Z,20.63
2023-05-08T14:47:00.908Z,20.59
2023-05-08T14:49:36.891Z,20.61
2023-05-08T14:52:05.602Z,20.68
2023-05-08T14:54:32.335Z,20.77
2023-05-08T14:56:59.225Z,20.90
2023-05-08T14:59:25.839Z,20.94
2023-05-08T15:01:52.469Z,20.86
2023-05-08T15:04:19.261Z,20.80
2023-05-08T15:06:46.088Z,20.79
2023-05-08T15:09:12.766Z,20.77
2023-05-08T15:11:39.365Z,20.73
2023-05-08T15:14:06.141Z,20.65
2023-05-08T15:16:32.875Z,20.62
2023-05-08T15:19:00.238Z,20.55
2023-05-08T15:21:27.306Z,20.52
2023-05-08T15:23:55.167Z,20.51
2023-05-08T15:26:22.762Z,20.48
2023-05-08T15:28:49.577Z,20.44
2023-05-08T15:31:16.398Z,20.39
2023-05-08T15:33:44.932Z,20.38
2023-05-08T15:36:13.451Z,20.31
2023-05-08T15:38:41.143Z,20.28
2023-05-08T15:41:08.035Z,20.26
2023-05-08T15:43:34.540Z,20.29
2023-05-08T15:46:01.104Z,20.29
2023-05-08T15:48:27.661Z,20.31
2023-05-08T15:50:54.155Z,20.32
2023-05-08T15:53:20.705Z,20.30
2023-05-08T15:55:47.316Z,20.28
2023-05-08T15:58:13.858Z,20.25
2023-05-08T16:00:44.551Z,20.22
2023-05-08T16:03:12.253Z,20.17
2023-05-08T16:05:39.574Z,20.14
2023-05-08T16:08:07.411Z,20.19
2023-05-08T16:10:34.277Z,20.19
2023-05-08T16:13:00.881Z,20.17
2023-05-08T16:15:27.424Z,20.14
2023-05-08T16:17:54.114Z,20.14
2023-05-08T16:20:20.770Z,20.12
2023-05-08T16:22:47.291Z,20.12
2023-05-08T16:25:14.075Z,20.09
2023-05-08T16:27:40.828Z,20.08
2023-05-08T16:30:08.004Z,20.05
2023-05-08T16:32:34.597Z,20.05
2023-05-08T16:35:01.252Z,20.01
2023-05-08T16:37:27.865Z,20.03
2023-05-08T16:39:54.445Z,20.02
2023-05-08T16:42:21.000Z,20.07
2023-05-08T16:44:47.483Z,20.12
2023-05-08T16:47:14.031Z,20.19
2023-05-08T16:49:40.683Z,20.29
2023-05-08T16:52:07.379Z,20.33
2023-05-08T16:54:33.985Z,20.40
2023-05-08T16:57:00.552Z,20.49
2023-05-08T16:59:27.142Z,20.54
2023-05-08T17:01:53.705Z,20.58
2023-05-08T17:04:20.299Z,20.61
2023-05-08T17:06:46.895Z,20.63
2023-05-08T17:09:13.391Z,20.70
2023-05-08T17:11:40.380Z,20.66
2023-05-08T17:14:07.088Z,20.68
2023-05-08T17:16:33.620Z,20.73
2023-05-08T17:19:00.567Z,20.70
2023-05-08T17:21:27.088Z,20.67
2023-05-08T17:23:53.675Z,20.55
2023-05-08T17:26:21.691Z,20.47
2023-05-08T17:28:48.209Z,20.42
2023-05-08T17:31:15.895Z,20.36
2023-05-08T17:33:42.570Z,20.36
2023-05-08T17:36:09.436Z,20.26
2023-05-08T17:38:38.290Z,20.22
2023-05-08T17:41:04.818Z,20.20
2023-05-08T17:43:31.533Z,20.05
2023-05-08T17:45:58.193Z,19.91
2023-05-08T17:48:25.178Z,19.82
2023-05-08T17:50:51.660Z,19.73
2023-05-08T17:53:19.918Z,19.72
2023-05-08T17:55:46.390Z,19.71
2023-05-08T17:58:12.929Z,19.73
2023-05-08T18:00:39.599Z,19.69
2023-05-08T18:03:06.242Z,19.66
2023-05-08T18:05:33.026Z,19.61
2023-05-08T18:07:59.662Z,19.58
2023-05-08T18:10:26.228Z,19.60
2023-05-08T18:12:52.810Z,19.56
2023-05-08T18:15:19.420Z,19.53
2023-05-08T18:17:46.003Z,19.47
2023-05-08T18:20:12.801Z,19.50
2023-05-08T18:22:39.454Z,19.49
2023-05-08T18:25:06.267Z,19.47
2023-05-08T18:27:34.349Z,19.46
2023-05-08T18:30:01.115Z,19.45
2023-05-08T18:32:27.769Z,19.41
2023-05-08T18:34:54.392Z,19.35
2023-05-08T18:37:21.002Z,19.28
2023-05-08T18:39:47.495Z,19.22
2023-05-08T18:42:13.992Z,19.22
2023-05-08T18:44:40.976Z,19.11
2023-05-08T18:47:08.574Z,19.10
2023-05-08T18:49:35.871Z,19.10
2023-05-08T18:52:02.702Z,19.10
2023-05-08T18:54:29.259Z,19.08
2023-05-08T18:56:55.895Z,19.10
2023-05-08T18:59:22.509Z,19.07
2023-05-08T19:01:50.473Z,19.09
2023-05-08T19:04:17.054Z,19.11
2023-05-08T19:06:43.638Z,19.15
2023-05-08T19:09:10.379Z,19.13
2023-05-08T19:11:36.978Z,19.09
2023-05-08T19:14:03.988Z,19.06
2023-05-08T19:16:30.614Z,19.02
2023-05-08T19:18:57.206Z,18.94
2023-05-08T19:21:23.782Z,18.83
2023-05-08T19:23:50.861Z,18.72
2023-05-08T19:26:18.082Z,18.67
2023-05-08T19:28:44.640Z,18.67
2023-05-08T19:31:11.228Z,18.66
2023-05-08T19:33:37.801Z,18.74
2023-05-08T19:36:04.363Z,18.72
2023-05-08T19:38:30.944Z,18.72
2023-05-08T19:40:58.061Z,18.74
2023-05-08T19:43:26.198Z,18.72
2023-05-08T19:45:52.948Z,18.73
2023-05-08T19:48:20.094Z,18.75
2023-05-08T19:50:46.947Z,18.71
2023-05-08T19:53:13.721Z,18.70
2023-05-08T19:55:40.393Z,18.61
2023-05-08T19:58:06.864Z,18.57
2023-05-08T20:00:33.474Z,18.56
2023-05-08T20:03:00.032Z,18.50
2023-05-08T20:05:26.736Z,18.49
2023-05-08T20:07:53.390Z,18.52
2023-05-08T20:10:19.932Z,18.46
2023-05-08T20:12:46.480Z,18.45
2023-05-08T20:15:13.251Z,18.41
2023-05-08T20:17:39.956Z,18.31
2023-05-08T20:20:07.187Z,18.38
2023-05-08T20:22:33.660Z,18.34
2023-05-08T20:25:02.860Z,18.27
2023-05-08T20:27:30.750Z,18.08
2023-05-08T20:29:57.306Z,18.09
2023-05-08T20:32:23.930Z,18.09
2023-05-08T20:34:50.541Z,18.09
2023-05-08T20:37:17.218Z,18.03
2023-05-08T20:39:43.870Z,18.04
2023-05-08T20:42:10.539Z,17.99
2023-05-08T20:44:37.071Z,18.08
2023-05-08T20:47:03.617Z,18.03
2023-05-08T20:49:30.150Z,18.07
2023-05-08T20:51:56.692Z,18.05
2023-05-08T20:54:23.308Z,18.03
2023-05-08T20:56:49.770Z,17.96
2023-05-08T20:59:16.718Z,17.98
2023-05-08T21:01:43.442Z,17.94
2023-05-08T21:04:10.176Z,17.96
2023-05-08T21:06:36.770Z,17.95
2023-05-08T21:09:05.178Z,17.95
2023-05-08T21:11:33.174Z,17.90
2023-05-08T21:13:59.665Z,17.92
2023-05-08T21:16:26.891Z,17.85
2023-05-08T21:18:55.417Z,17.83
2023-05-08T21:21:23.367Z,17.82
2023-05-08T21:23:49.932Z,17.85
2023-05-08T21:26:17.949Z,17.87
2023-05-08T21:28:44.486Z,17.81
2023-05-08T21:31:11.036Z,17.77
2023-05-08T21:33:37.686Z,17.79
2023-05-08T21:36:04.324Z,17.79
2023-05-08T21:38:30.843Z,17.75
2023-05-08T21:40:57.512Z,17.77
2023-05-08T21:43:24.024Z,17.80
2023-05-08T21:45:50.625Z,17.77
2023-05-08T21:48:17.151Z,17.81
2023-05-08T21:50:43.675Z,17.79
2023-05-08T21:53:10.218Z,17.74
2023-05-08T21:55:36.823Z,17.72
2023-05-08T21:58:03.434Z,17.73
2023-05-08T22:00:29.992Z,17.67
2023-05-08T22:02:56.610Z,17.66
2023-05-08T22:05:24.341Z,17.60
2023-05-08T22:07:50.989Z,17.65
2023-05-08T22:10:17.645Z,17.69
2023-05-08T22:12:44.291Z,17.71
2023-05-08T22:15:25.722Z,17.71
2023-05-08T22:17:56.399Z,17.66
2023-05-08T22:20:23.087Z,17.66
2023-05-08T22:22:49.719Z,17.68
2023-05-08T22:25:16.308Z,17.71
2023-05-08T22:27:42.858Z,17.71
2023-05-08T22:30:09.502Z,17.71
2023-05-08T22:32:36.584Z,17.70
2023-05-08T22:35:03.421Z,17.67
2023-05-08T22:37:30.342Z,17.65
2023-05-08T22:39:56.915Z,17.65
2023-05-08T22:42:24.513Z,17.61
2023-05-08T22:44:51.288Z,17.61
2023-05-08T22:47:18.082Z,17.60
2023-05-08T22:49:45.042Z,17.59
2023-05-08T22:52:11.606Z,17.57
2023-05-08T22:54:38.110Z,17.54
2023-05-08T22:57:04.689Z,17.54
2023-05-08T22:59:31.239Z,17.53
2023-05-08T23:01:57.720Z,17.54
2023-05-08T23:04:24.350Z,17.50
2023-05-08T23:06:51.111Z,17.48
2023-05-08T23:09:17.592Z,17.47
2023-05-08T23:11:44.154Z,17.47
2023-05-08T23:14:10.642Z,17.46
2023-05-08T23:16:37.171Z,17.40
2023-05-08T23:19:04.592Z,17.41
2023-05-08T23:21:32.052Z,17.42
2023-05-08T23:23:58.902Z,17.40
2023-05-08T23:26:25.986Z,17.39
2023-05-08T23:28:52.691Z,17.39
2023-05-08T23:31:19.326Z,17.38
2023-05-08T23:33:45.905Z,17.39
2023-05-08T23:36:12.489Z,17.36
2023-05-08T23:38:39.048Z,17.34
2023-05-08T23:41:05.578Z,17.32
2023-05-08T23:43:32.306Z,17.28
2023-05-08T23:45:58.940Z,17.28
2023-05-08T23:48:26.504Z,17.28
2023-05-08T23:50:53.448Z,17.26
2023-05-08T23:53:19.985Z,17.23
2023-05-08T23:55:50.739Z,17.23
2023-05-08T23:58:18.347Z,17.23
